Terminal Aerodrome Forecast
Issued by NWS Flagstaff, AZ

Home | Current Version | Previous Version | Text Only | Print | Product List | Glossary On
Versions: 1 2 3 4 5 6 7 8 9 10 11 12 13 14 15 16 17 18 19 20 21 22 23 24
000
FTUS45 KFGZ 012300
TAFFLG
TAF
KFLG 012338Z 0200/0224 22010KT 3SM -RA BR OVC006
     FM020300 21012G22KT 5SM -RA OVC010
     FM021500 23015G25KT 1/2SM SN FG BKN008 OVC015=

USA.gov is the U.S. government's official web portal to all federal, state and local government web resources and services.